createdAt,value
2018-12-26T00:00:35.521Z,19.66
2018-12-26T00:01:35.409Z,19.63
2018-12-26T00:02:35.270Z,19.70
2018-12-26T00:03:35.294Z,19.72
2018-12-26T00:04:35.340Z,19.66
2018-12-26T00:05:35.449Z,19.67
2018-12-26T00:06:35.324Z,19.71
2018-12-26T00:07:35.344Z,19.63
2018-12-26T00:08:35.365Z,19.70
2018-12-26T00:09:35.388Z,19.70
2018-12-26T00:10:35.534Z,19.60
2018-12-26T00:11:35.400Z,19.71
2018-12-26T00:12:35.411Z,19.70
2018-12-26T00:13:35.492Z,19.67
2018-12-26T00:14:35.458Z,19.62
2018-12-26T00:15:35.689Z,19.66
2018-12-26T00:16:35.598Z,19.72
2018-12-26T00:17:35.611Z,19.78
2018-12-26T00:18:35.520Z,19.72
2018-12-26T00:19:35.717Z,19.79
2018-12-26T00:20:35.623Z,19.82
2018-12-26T00:21:35.548Z,19.78
2018-12-26T00:22:35.568Z,19.79
2018-12-26T00:23:35.587Z,19.71
2018-12-26T00:24:35.608Z,19.77
2018-12-26T00:25:35.829Z,19.71
2018-12-26T00:26:35.622Z,19.77
2018-12-26T00:27:35.623Z,19.66
2018-12-26T00:28:35.644Z,19.70
2018-12-26T00:29:35.656Z,19.74
2018-12-26T00:30:35.784Z,19.77
2018-12-26T00:31:35.692Z,19.78
2018-12-26T00:32:35.718Z,19.78
2018-12-26T00:33:35.720Z,19.78
2018-12-26T00:34:35.860Z,19.74
2018-12-26T00:35:35.807Z,19.78
2018-12-26T00:36:35.755Z,19.72
2018-12-26T00:37:35.801Z,19.72
2018-12-26T00:38:35.788Z,19.79
2018-12-26T00:39:35.929Z,19.81
2018-12-26T00:40:36.146Z,19.74
2018-12-26T00:41:35.826Z,19.75
2018-12-26T00:42:35.952Z,19.87
2018-12-26T00:43:35.989Z,19.74
2018-12-26T00:44:35.874Z,19.84
2018-12-26T00:45:36.009Z,19.78
2018-12-26T00:46:35.950Z,19.89
2018-12-26T00:47:35.928Z,19.85
2018-12-26T00:48:35.956Z,19.87
2018-12-26T00:49:36.012Z,19.89
2018-12-26T00:50:36.076Z,19.93
2018-12-26T00:51:35.984Z,19.93
2018-12-26T00:52:35.992Z,19.85
2018-12-26T00:53:36.133Z,19.97
2018-12-26T00:54:36.146Z,19.82
2018-12-26T00:55:36.135Z,19.82
2018-12-26T00:56:36.060Z,19.77
2018-12-26T00:57:36.190Z,19.75
2018-12-26T00:58:36.087Z,19.74
2018-12-26T00:59:36.100Z,19.89
2018-12-26T01:00:36.223Z,19.82
2018-12-26T01:01:36.126Z,19.82
2018-12-26T01:02:36.157Z,19.85
2018-12-26T01:03:36.157Z,19.82
2018-12-26T01:04:36.178Z,19.82
2018-12-26T01:05:36.406Z,19.85
2018-12-26T01:06:36.196Z,19.89
2018-12-26T01:07:36.225Z,19.82
2018-12-26T01:08:36.225Z,19.85
2018-12-26T01:09:36.242Z,19.84
2018-12-26T01:10:36.359Z,19.82
2018-12-26T01:11:36.277Z,19.93
2018-12-26T01:12:36.278Z,19.90
2018-12-26T01:13:36.296Z,19.89
2018-12-26T01:14:36.336Z,19.89
2018-12-26T01:15:36.370Z,19.97
2018-12-26T01:16:36.346Z,19.89
2018-12-26T01:17:36.514Z,19.94
2018-12-26T01:18:36.372Z,19.93
2018-12-26T01:19:36.386Z,19.97
2018-12-26T01:20:36.392Z,19.89
2018-12-26T01:21:36.408Z,19.90
2018-12-26T01:22:36.536Z,19.93
2018-12-26T01:23:36.438Z,19.90
2018-12-26T01:24:36.464Z,19.93
2018-12-26T01:25:36.486Z,19.97
2018-12-26T01:26:36.491Z,19.97
2018-12-26T01:27:36.610Z,19.93
2018-12-26T01:28:36.513Z,19.97
2018-12-26T01:29:36.543Z,19.87
2018-12-26T01:30:36.545Z,19.93
2018-12-26T01:31:36.546Z,19.99
2018-12-26T01:32:36.675Z,19.97
2018-12-26T01:33:36.705Z,19.89
2018-12-26T01:34:36.594Z,19.93
2018-12-26T01:35:36.627Z,19.96
2018-12-26T01:36:36.626Z,19.92
2018-12-26T01:37:36.866Z,19.97
2018-12-26T01:38:36.780Z,19.93
2018-12-26T01:39:36.670Z,19.96
2018-12-26T01:40:36.690Z,20.04
2018-12-26T01:41:36.702Z,19.92
2018-12-26T01:42:36.915Z,19.93
2018-12-26T01:43:36.720Z,19.92
2018-12-26T01:44:36.736Z,19.96
2018-12-26T01:45:36.879Z,19.96
2018-12-26T01:46:36.777Z,19.92
2018-12-26T01:47:36.886Z,19.93
2018-12-26T01:48:36.820Z,19.96
2018-12-26T01:49:36.819Z,19.94
2018-12-26T01:50:36.955Z,19.97
2018-12-26T01:51:36.852Z,20.00
2018-12-26T01:52:36.956Z,20.00
2018-12-26T01:53:36.881Z,19.93
2018-12-26T01:54:36.896Z,19.93
2018-12-26T01:55:36.897Z,19.94
2018-12-26T01:56:36.920Z,19.94
2018-12-26T01:57:37.052Z,19.94
2018-12-26T01:58:36.935Z,19.92
2018-12-26T01:59:36.960Z,19.93
2018-12-26T02:00:36.965Z,19.90
2018-12-26T02:01:36.987Z,19.93
2018-12-26T02:02:37.108Z,20.00
2018-12-26T02:03:37.010Z,19.96
2018-12-26T02:04:37.037Z,19.97
2018-12-26T02:05:37.048Z,19.96
2018-12-26T02:06:37.070Z,19.93
2018-12-26T02:07:37.178Z,19.93
2018-12-26T02:08:37.101Z,19.79
2018-12-26T02:09:37.104Z,19.89
2018-12-26T02:10:37.145Z,19.87
2018-12-26T02:11:37.150Z,19.99
2018-12-26T02:12:37.270Z,19.89
2018-12-26T02:13:37.152Z,19.79
2018-12-26T02:14:37.300Z,19.84
2018-12-26T02:15:37.185Z,19.82
2018-12-26T02:16:37.201Z,19.78
2018-12-26T02:17:37.312Z,19.84
2018-12-26T02:18:37.231Z,19.87
2018-12-26T02:19:37.250Z,19.82
2018-12-26T02:20:37.390Z,19.77
2018-12-26T02:21:37.269Z,19.75
2018-12-26T02:22:37.404Z,19.81
2018-12-26T02:23:37.311Z,19.81
2018-12-26T02:24:37.331Z,19.84
2018-12-26T02:25:37.362Z,19.79
2018-12-26T02:26:37.476Z,19.85
2018-12-26T02:27:37.504Z,19.81
2018-12-26T02:28:37.505Z,19.75
2018-12-26T02:29:37.401Z,19.71
2018-12-26T02:30:37.418Z,19.70
2018-12-26T02:31:37.438Z,19.63
2018-12-26T02:32:37.591Z,19.66
2018-12-26T02:33:37.575Z,19.60
2018-12-26T02:34:37.467Z,19.47
2018-12-26T02:35:37.476Z,19.48
2018-12-26T02:36:37.514Z,19.41
2018-12-26T02:37:37.621Z,19.44
2018-12-26T02:38:37.515Z,19.30
2018-12-26T02:39:37.539Z,19.37
2018-12-26T02:40:37.546Z,19.29
2018-12-26T02:41:37.561Z,19.27
2018-12-26T02:42:37.641Z,19.24
2018-12-26T02:43:37.596Z,19.16
2018-12-26T02:44:37.618Z,19.20
2018-12-26T02:45:37.624Z,19.11
2018-12-26T02:46:37.654Z,19.01
2018-12-26T02:47:37.710Z,19.11
2018-12-26T02:48:37.675Z,19.12
2018-12-26T02:49:37.696Z,19.12
2018-12-26T02:50:37.821Z,19.08
2018-12-26T02:51:37.702Z,19.04
2018-12-26T02:52:37.841Z,19.08
2018-12-26T02:53:37.745Z,19.04
2018-12-26T02:54:37.750Z,19.12
2018-12-26T02:55:37.773Z,19.08
2018-12-26T02:56:46.163Z,19.07
2018-12-26T02:57:37.977Z,19.07
2018-12-26T02:58:37.807Z,18.96
2018-12-26T02:59:37.942Z,19.05
2018-12-26T03:00:37.989Z,18.98
2018-12-26T03:01:37.887Z,18.92
2018-12-26T03:02:37.866Z,19.05
2018-12-26T03:03:37.885Z,18.97
2018-12-26T03:04:37.907Z,18.94
2018-12-26T03:05:37.962Z,18.94
2018-12-26T03:06:38.048Z,18.97
2018-12-26T03:07:37.926Z,18.97
2018-12-26T03:08:37.946Z,18.96
2018-12-26T03:09:37.955Z,18.96
2018-12-26T03:10:37.987Z,18.96
2018-12-26T03:11:38.048Z,18.98
2018-12-26T03:12:38.127Z,18.92
2018-12-26T03:13:38.033Z,19.00
2018-12-26T03:14:38.153Z,18.94
2018-12-26T03:15:38.066Z,18.94
2018-12-26T03:16:38.163Z,18.85
2018-12-26T03:17:38.089Z,18.83
2018-12-26T03:18:38.091Z,18.91
2018-12-26T03:19:38.105Z,18.86
2018-12-26T03:20:38.234Z,18.94
2018-12-26T03:21:38.350Z,18.88
2018-12-26T03:22:38.162Z,18.88
2018-12-26T03:23:38.152Z,18.85
2018-12-26T03:24:38.172Z,18.82
2018-12-26T03:25:38.307Z,18.83
2018-12-26T03:26:38.262Z,18.78
2018-12-26T03:27:38.339Z,18.82
2018-12-26T03:28:38.352Z,18.89
2018-12-26T03:29:38.355Z,18.83
2018-12-26T03:30:38.249Z,18.85
2018-12-26T03:31:38.312Z,18.83
2018-12-26T03:32:38.302Z,18.85
2018-12-26T03:33:38.303Z,18.81
2018-12-26T03:34:38.485Z,18.82
2018-12-26T03:35:38.447Z,18.89
2018-12-26T03:36:38.332Z,18.91
2018-12-26T03:37:38.353Z,18.85
2018-12-26T03:38:38.360Z,18.82
2018-12-26T03:39:38.651Z,18.88
2018-12-26T03:40:38.396Z,18.88
2018-12-26T03:41:38.429Z,18.82
2018-12-26T03:42:38.429Z,18.83
2018-12-26T03:43:38.438Z,18.89
2018-12-26T03:44:38.441Z,18.81
2018-12-26T03:45:38.570Z,18.76
2018-12-26T03:46:38.488Z,18.73
2018-12-26T03:47:38.611Z,18.79
2018-12-26T03:48:38.519Z,18.64
2018-12-26T03:49:38.640Z,18.68
2018-12-26T03:50:38.707Z,18.78
2018-12-26T03:51:38.545Z,18.71
2018-12-26T03:52:38.596Z,18.68
2018-12-26T03:53:38.577Z,18.64
2018-12-26T03:54:38.713Z,18.64
2018-12-26T03:55:38.649Z,18.74
2018-12-26T03:56:38.616Z,18.63
2018-12-26T03:57:38.633Z,18.60
2018-12-26T03:58:38.693Z,18.58
2018-12-26T03:59:38.662Z,18.63
2018-12-26T04:00:38.659Z,18.60
2018-12-26T04:01:38.689Z,18.57
2018-12-26T04:02:38.696Z,18.60
2018-12-26T04:03:38.880Z,18.61
2018-12-26T04:04:38.722Z,18.53
2018-12-26T04:05:38.733Z,18.61
2018-12-26T04:06:38.802Z,18.55
2018-12-26T04:07:38.777Z,18.46
2018-12-26T04:08:38.945Z,18.49
2018-12-26T04:09:38.803Z,18.49
2018-12-26T04:10:38.833Z,18.51
2018-12-26T04:11:38.816Z,18.48
2018-12-26T04:12:38.858Z,18.51
2018-12-26T04:13:39.072Z,18.52
2018-12-26T04:14:38.989Z,18.51
2018-12-26T04:15:38.869Z,18.46
2018-12-26T04:16:39.015Z,18.51
2018-12-26T04:17:38.896Z,18.51
2018-12-26T04:18:39.096Z,18.49
2018-12-26T04:19:38.926Z,18.49
2018-12-26T04:20:38.950Z,18.46
2018-12-26T04:21:38.949Z,18.51
2018-12-26T04:22:39.069Z,18.49
2018-12-26T04:23:39.040Z,18.42
2018-12-26T04:24:39.124Z,18.49
2018-12-26T04:25:39.017Z,18.43
2018-12-26T04:26:39.022Z,18.42
2018-12-26T04:27:39.094Z,18.41
2018-12-26T04:28:39.056Z,18.39
2018-12-26T04:29:39.194Z,18.43
2018-12-26T04:30:39.092Z,18.39
2018-12-26T04:31:39.186Z,18.33
2018-12-26T04:32:39.107Z,18.33
2018-12-26T04:33:39.112Z,18.31
2018-12-26T04:34:39.138Z,18.34
2018-12-26T04:35:39.154Z,18.34
2018-12-26T04:36:39.270Z,18.43
2018-12-26T04:37:39.174Z,18.36
2018-12-26T04:38:39.182Z,18.37
2018-12-26T04:39:39.229Z,18.36
2018-12-26T04:40:39.240Z,18.36
2018-12-26T04:41:39.401Z,18.34
2018-12-26T04:42:39.242Z,18.42
2018-12-26T04:43:39.268Z,18.37
2018-12-26T04:44:39.334Z,18.37
2018-12-26T04:45:39.309Z,18.36
2018-12-26T04:46:39.407Z,18.41
2018-12-26T04:47:39.334Z,18.45
2018-12-26T04:48:39.333Z,18.39
2018-12-26T04:49:39.344Z,18.41
2018-12-26T04:50:39.383Z,18.34
2018-12-26T04:51:39.627Z,18.28
2018-12-26T04:52:39.384Z,18.24
2018-12-26T04:53:39.388Z,18.28
2018-12-26T04:54:39.536Z,18.27
2018-12-26T04:55:39.420Z,18.16
2018-12-26T04:56:39.556Z,18.21
2018-12-26T04:57:39.458Z,18.26
2018-12-26T04:58:39.587Z,18.26
2018-12-26T04:59:39.480Z,18.19
2018-12-26T05:00:39.492Z,18.21
2018-12-26T05:01:42.042Z,18.16
2018-12-26T05:02:39.524Z,18.13
2018-12-26T05:03:39.540Z,18.09
2018-12-26T05:04:39.674Z,18.11
2018-12-26T05:05:39.572Z,18.03
2018-12-26T05:06:39.673Z,18.02
2018-12-26T05:07:39.599Z,18.03
2018-12-26T05:08:39.723Z,17.98
2018-12-26T05:09:39.634Z,18.02
2018-12-26T05:10:39.639Z,17.98
2018-12-26T05:11:39.739Z,18.03
2018-12-26T05:12:39.654Z,18.05
2018-12-26T05:13:39.701Z,18.05
2018-12-26T05:14:39.684Z,18.00
2018-12-26T05:15:39.698Z,17.95
2018-12-26T05:16:39.765Z,17.97
2018-12-26T05:17:39.850Z,17.91
2018-12-26T05:18:39.748Z,17.91
2018-12-26T05:19:39.755Z,17.97
2018-12-26T05:20:39.769Z,17.87
2018-12-26T05:21:39.778Z,17.82
2018-12-26T05:22:40.015Z,17.91
2018-12-26T05:23:39.815Z,17.75
2018-12-26T05:24:39.822Z,17.91
2018-12-26T05:25:39.953Z,17.75
2018-12-26T05:26:39.863Z,17.68
2018-12-26T05:27:39.953Z,17.79
2018-12-26T05:28:39.886Z,17.79
2018-12-26T05:29:39.886Z,17.80
2018-12-26T05:30:40.022Z,17.76
2018-12-26T05:31:39.921Z,17.79
2018-12-26T05:32:40.016Z,17.75
2018-12-26T05:33:39.957Z,17.68
2018-12-26T05:34:39.998Z,17.79
2018-12-26T05:35:40.090Z,17.69
2018-12-26T05:36:40.004Z,17.59
2018-12-26T05:37:40.095Z,17.65
2018-12-26T05:38:39.994Z,17.66
2018-12-26T05:39:40.022Z,17.60
2018-12-26T05:40:40.035Z,17.60
2018-12-26T05:41:40.036Z,17.56
2018-12-26T05:42:40.288Z,17.59
2018-12-26T05:43:40.099Z,17.57
2018-12-26T05:44:40.085Z,17.56
2018-12-26T05:45:40.108Z,17.57
2018-12-26T05:46:40.123Z,17.50
2018-12-26T05:47:40.301Z,17.52
2018-12-26T05:48:40.159Z,17.54
2018-12-26T05:49:40.149Z,17.52
2018-12-26T05:50:40.174Z,17.53
2018-12-26T05:51:40.184Z,17.46
2018-12-26T05:52:40.291Z,17.49
2018-12-26T05:53:40.332Z,17.47
2018-12-26T05:54:40.352Z,17.34
2018-12-26T05:55:40.237Z,17.42
2018-12-26T05:56:40.256Z,17.39
2018-12-26T05:57:42.973Z,17.39
2018-12-26T05:58:40.401Z,17.49
2018-12-26T05:59:40.297Z,17.46
2018-12-26T06:00:40.307Z,17.41
2018-12-26T06:01:40.333Z,17.42
2018-12-26T06:02:40.485Z,17.41
2018-12-26T06:03:40.343Z,17.47
2018-12-26T06:04:40.364Z,17.44
2018-12-26T06:05:40.361Z,17.31
2018-12-26T06:06:40.505Z,17.28
2018-12-26T06:07:40.501Z,17.30
2018-12-26T06:08:40.396Z,17.32
2018-12-26T06:09:40.544Z,17.28
2018-12-26T06:10:40.428Z,17.30
2018-12-26T06:11:40.497Z,17.24
2018-12-26T06:12:40.609Z,17.23
2018-12-26T06:13:40.517Z,17.27
2018-12-26T06:14:40.488Z,17.23
2018-12-26T06:15:40.507Z,17.28
2018-12-26T06:16:40.535Z,17.28
2018-12-26T06:17:40.587Z,17.23
2018-12-26T06:18:40.550Z,17.20
2018-12-26T06:19:40.550Z,17.24
2018-12-26T06:20:40.669Z,17.20
2018-12-26T06:21:40.586Z,17.16
2018-12-26T06:22:40.690Z,17.19
2018-12-26T06:23:40.620Z,17.31
2018-12-26T06:24:40.633Z,17.27
2018-12-26T06:25:40.630Z,17.30
2018-12-26T06:26:40.665Z,17.35
2018-12-26T06:27:40.761Z,17.39
2018-12-26T06:28:40.721Z,17.54
2018-12-26T06:29:40.695Z,17.56
2018-12-26T06:30:40.719Z,17.56
2018-12-26T06:31:40.725Z,17.60
2018-12-26T06:32:40.888Z,17.66
2018-12-26T06:33:40.757Z,17.73
2018-12-26T06:34:40.768Z,17.73
2018-12-26T06:35:40.889Z,17.76
2018-12-26T06:36:40.784Z,17.76
2018-12-26T06:37:41.018Z,17.73
2018-12-26T06:38:40.801Z,17.73
2018-12-26T06:39:40.817Z,17.72
2018-12-26T06:40:40.921Z,17.71
2018-12-26T06:41:40.865Z,17.60
2018-12-26T06:42:40.976Z,17.49
2018-12-26T06:43:40.996Z,17.39
2018-12-26T06:44:40.887Z,17.39
2018-12-26T06:45:40.913Z,17.44
2018-12-26T06:46:40.920Z,17.52
2018-12-26T06:47:40.983Z,17.54
2018-12-26T06:48:40.984Z,17.49
2018-12-26T06:49:40.991Z,17.53
2018-12-26T06:50:41.004Z,17.54
2018-12-26T06:51:40.979Z,17.42
2018-12-26T06:52:40.984Z,17.44
2018-12-26T06:53:41.127Z,17.41
2018-12-26T06:54:41.013Z,17.41
2018-12-26T06:55:41.771Z,17.39
2018-12-26T06:56:41.040Z,17.53
2018-12-26T06:57:41.058Z,17.49
2018-12-26T06:58:41.194Z,17.44
2018-12-26T06:59:41.077Z,17.46
2018-12-26T07:00:41.162Z,17.49
2018-12-26T07:01:41.153Z,17.39
2018-12-26T07:02:41.174Z,17.41
2018-12-26T07:03:41.241Z,17.49
2018-12-26T07:04:41.149Z,17.47
2018-12-26T07:05:41.163Z,17.54
2018-12-26T07:06:41.191Z,17.54
2018-12-26T07:07:41.233Z,17.57
2018-12-26T07:08:41.423Z,17.65
2018-12-26T07:09:41.270Z,17.60
2018-12-26T07:10:41.237Z,17.59
2018-12-26T07:11:41.293Z,17.49
2018-12-26T07:12:41.263Z,17.44
2018-12-26T07:13:41.363Z,17.37
2018-12-26T07:14:41.282Z,17.42
2018-12-26T07:15:41.292Z,17.37
2018-12-26T07:16:41.433Z,17.30
2018-12-26T07:17:41.323Z,17.27
2018-12-26T07:18:41.491Z,17.23
2018-12-26T07:19:41.339Z,17.31
2018-12-26T07:20:41.367Z,17.30
2018-12-26T07:21:41.374Z,17.27
2018-12-26T07:22:41.381Z,17.22
2018-12-26T07:23:41.396Z,17.19
2018-12-26T07:24:41.473Z,17.13
2018-12-26T07:25:41.429Z,17.14
2018-12-26T07:26:41.435Z,17.14
2018-12-26T07:27:41.452Z,17.10
2018-12-26T07:28:41.505Z,17.12
2018-12-26T07:29:41.620Z,17.09
2018-12-26T07:30:41.617Z,17.10
2018-12-26T07:31:41.494Z,17.10
2018-12-26T07:32:41.527Z,17.07
2018-12-26T07:33:41.542Z,17.07
2018-12-26T07:34:42.384Z,17.07
2018-12-26T07:35:41.557Z,17.09
2018-12-26T07:36:41.560Z,17.09
2018-12-26T07:37:41.595Z,17.10
2018-12-26T07:38:41.596Z,17.07
2018-12-26T07:39:41.781Z,17.10
2018-12-26T07:40:41.618Z,17.13
2018-12-26T07:41:41.634Z,17.19
2018-12-26T07:42:41.770Z,17.22
2018-12-26T07:43:41.659Z,17.05
2018-12-26T07:44:41.821Z,17.19
2018-12-26T07:45:41.680Z,17.16
2018-12-26T07:46:41.824Z,17.13
2018-12-26T07:47:41.738Z,17.10
2018-12-26T07:48:41.737Z,17.14
2018-12-26T07:49:41.911Z,17.14
2018-12-26T07:50:41.761Z,17.07
2018-12-26T07:51:41.761Z,17.10
2018-12-26T07:52:41.798Z,17.07
2018-12-26T07:53:41.784Z,17.10
2018-12-26T07:54:41.917Z,17.12
2018-12-26T07:55:41.810Z,17.07
2018-12-26T07:56:41.838Z,16.99
2018-12-26T07:57:41.854Z,17.13
2018-12-26T07:58:41.858Z,16.98
2018-12-26T07:59:41.971Z,16.94
2018-12-26T08:00:42.014Z,16.99
2018-12-26T08:01:41.894Z,17.02
2018-12-26T08:02:41.920Z,16.98
2018-12-26T08:03:42.048Z,17.05
2018-12-26T08:04:42.012Z,16.99
2018-12-26T08:05:41.982Z,17.09
2018-12-26T08:06:41.982Z,16.95
2018-12-26T08:07:41.969Z,16.98
2018-12-26T08:08:41.992Z,16.92
2018-12-26T08:09:42.226Z,17.01
2018-12-26T08:10:42.007Z,17.09
2018-12-26T08:11:42.154Z,16.99
2018-12-26T08:12:42.045Z,16.98
2018-12-26T08:13:42.048Z,17.01
2018-12-26T08:14:42.156Z,17.05
2018-12-26T08:15:42.075Z,17.09
2018-12-26T08:16:42.092Z,17.10
2018-12-26T08:17:42.112Z,17.13
2018-12-26T08:18:42.137Z,17.16
2018-12-26T08:19:42.188Z,17.17
2018-12-26T08:20:42.139Z,17.16
2018-12-26T08:21:42.164Z,17.10
2018-12-26T08:22:42.187Z,17.07
2018-12-26T08:23:42.180Z,17.09
2018-12-26T08:24:42.313Z,17.22
2018-12-26T08:25:42.211Z,17.16
2018-12-26T08:26:42.241Z,17.31
2018-12-26T08:27:42.227Z,17.31
2018-12-26T08:28:42.269Z,17.44
2018-12-26T08:29:42.360Z,17.56
2018-12-26T08:30:42.288Z,17.63
2018-12-26T08:31:42.300Z,17.78
2018-12-26T08:32:42.311Z,17.82
2018-12-26T08:33:42.319Z,17.72
2018-12-26T08:34:42.474Z,17.84
2018-12-26T08:35:42.349Z,17.88
2018-12-26T08:36:42.363Z,17.87
2018-12-26T08:37:42.377Z,17.94
2018-12-26T08:38:42.385Z,17.93
2018-12-26T08:39:42.540Z,17.91
2018-12-26T08:40:42.407Z,17.93
2018-12-26T08:41:42.415Z,18.05
2018-12-26T08:42:42.446Z,18.09
2018-12-26T08:43:42.447Z,18.09
2018-12-26T08:44:42.543Z,18.11
2018-12-26T08:45:42.488Z,18.15
2018-12-26T08:46:42.508Z,18.26
2018-12-26T08:47:42.507Z,18.16
2018-12-26T08:48:42.517Z,18.24
2018-12-26T08:49:42.589Z,18.27
2018-12-26T08:50:42.593Z,18.33
2018-12-26T08:51:42.555Z,18.37
2018-12-26T08:52:42.566Z,18.41
2018-12-26T08:53:42.591Z,18.53
2018-12-26T08:54:42.695Z,18.49
2018-12-26T08:55:42.711Z,18.60
2018-12-26T08:56:42.750Z,18.60
2018-12-26T08:57:42.636Z,18.63
2018-12-26T08:58:42.774Z,18.66
2018-12-26T08:59:42.819Z,18.76
2018-12-26T09:00:42.697Z,18.76
2018-12-26T09:01:42.708Z,18.76
2018-12-26T09:02:42.750Z,18.89
2018-12-26T09:03:42.841Z,18.86
2018-12-26T09:04:42.836Z,18.85
2018-12-26T09:05:42.759Z,18.82
2018-12-26T09:06:42.766Z,18.85
2018-12-26T09:07:42.769Z,18.83
2018-12-26T09:08:42.792Z,18.86
2018-12-26T09:09:42.909Z,18.96
2018-12-26T09:10:42.942Z,19.07
2018-12-26T09:11:42.856Z,19.04
2018-12-26T09:12:42.861Z,19.07
2018-12-26T09:13:42.900Z,19.15
2018-12-26T09:14:42.995Z,19.01
2018-12-26T09:15:42.911Z,19.05
2018-12-26T09:16:42.902Z,19.07
2018-12-26T09:17:42.923Z,19.16
2018-12-26T09:18:42.926Z,19.16
2018-12-26T09:19:43.096Z,19.29
2018-12-26T09:20:42.957Z,19.26
2018-12-26T09:21:42.968Z,19.30
2018-12-26T09:22:42.991Z,19.32
2018-12-26T09:23:42.990Z,19.47
2018-12-26T09:24:43.119Z,19.52
2018-12-26T09:25:43.152Z,19.60
2018-12-26T09:26:43.040Z,19.55
2018-12-26T09:27:43.061Z,19.70
2018-12-26T09:28:43.938Z,19.77
2018-12-26T09:29:43.247Z,19.78
2018-12-26T09:30:43.152Z,19.85
2018-12-26T09:31:43.114Z,19.85
2018-12-26T09:32:43.123Z,19.96
2018-12-26T09:33:43.270Z,19.97
2018-12-26T09:34:43.215Z,20.03
2018-12-26T09:35:43.185Z,20.19
2018-12-26T09:36:43.201Z,20.15
2018-12-26T09:37:43.333Z,20.14
2018-12-26T09:38:43.216Z,20.15
2018-12-26T09:39:43.512Z,20.24
2018-12-26T09:40:43.263Z,20.30
2018-12-26T09:41:43.261Z,20.34
2018-12-26T09:42:43.313Z,20.36
2018-12-26T09:43:43.423Z,20.50
2018-12-26T09:44:43.370Z,20.66
2018-12-26T09:45:43.455Z,20.75
2018-12-26T09:46:43.345Z,20.74
2018-12-26T09:47:43.477Z,21.03
2018-12-26T09:48:43.386Z,21.01
2018-12-26T09:49:43.401Z,21.20
2018-12-26T09:50:43.452Z,21.72
2018-12-26T09:51:43.482Z,22.19
2018-12-26T09:52:43.611Z,22.78
2018-12-26T09:53:43.493Z,23.23
2018-12-26T09:54:43.482Z,23.59
2018-12-26T09:55:43.617Z,24.00
2018-12-26T09:56:43.631Z,24.16
2018-12-26T09:57:43.668Z,24.37
2018-12-26T09:58:43.535Z,24.24
2018-12-26T09:59:43.565Z,24.22
2018-12-26T10:00:43.580Z,24.14
2018-12-26T10:01:43.586Z,24.18
2018-12-26T10:02:43.717Z,24.18
2018-12-26T10:03:43.631Z,24.14
2018-12-26T10:04:43.655Z,24.32
2018-12-26T10:05:43.733Z,24.44
2018-12-26T10:06:43.808Z,24.92
2018-12-26T10:07:43.711Z,25.18
2018-12-26T10:08:43.779Z,25.63
2018-12-26T10:09:43.730Z,25.89
2018-12-26T10:10:43.877Z,26.10
2018-12-26T10:11:43.781Z,26.37
2018-12-26T10:12:43.803Z,26.67
2018-12-26T10:13:43.878Z,26.92
2018-12-26T10:14:43.833Z,26.76
2018-12-26T10:15:43.844Z,26.66
2018-12-26T10:16:43.892Z,26.48
2018-12-26T10:17:43.897Z,26.37
2018-12-26T10:18:43.967Z,26.24
2018-12-26T10:19:44.047Z,26.29
2018-12-26T10:20:43.932Z,26.22
2018-12-26T10:21:43.960Z,26.07
2018-12-26T10:22:43.985Z,25.88
2018-12-26T10:23:44.044Z,25.89
2018-12-26T10:24:44.020Z,25.81
2018-12-26T10:25:44.040Z,25.67
2018-12-26T10:26:44.046Z,25.54
2018-12-26T10:27:44.113Z,25.41
2018-12-26T10:28:44.203Z,25.18
2018-12-26T10:29:44.112Z,25.01
2018-12-26T10:30:44.140Z,24.97
2018-12-26T10:31:44.166Z,24.88
2018-12-26T10:32:44.198Z,24.85
2018-12-26T10:33:44.277Z,24.69
2018-12-26T10:34:44.219Z,24.63
2018-12-26T10:35:44.225Z,24.61
2018-12-26T10:36:44.347Z,24.51
2018-12-26T10:37:44.258Z,24.43
2018-12-26T10:38:44.282Z,24.32
2018-12-26T10:39:44.292Z,24.32
2018-12-26T10:40:44.311Z,24.41
2018-12-26T10:41:44.428Z,24.46
2018-12-26T10:42:46.004Z,24.50
2018-12-26T10:43:44.376Z,24.62
2018-12-26T10:44:44.376Z,24.66
2018-12-26T10:45:44.402Z,24.71
2018-12-26T10:46:44.517Z,24.81
2018-12-26T10:47:44.427Z,24.84
2018-12-26T10:48:44.464Z,24.92
2018-12-26T10:49:44.476Z,24.92
2018-12-26T10:50:44.524Z,24.93
2018-12-26T10:51:44.615Z,24.92
2018-12-26T10:52:44.541Z,24.81
2018-12-26T10:53:44.554Z,25.00
2018-12-26T10:54:44.575Z,25.49
2018-12-26T10:55:44.580Z,26.34
2018-12-26T10:56:44.875Z,27.48
2018-12-26T10:57:44.613Z,28.52
2018-12-26T10:58:44.631Z,29.39
2018-12-26T10:59:44.657Z,29.84
2018-12-26T11:00:44.682Z,30.51
2018-12-26T11:01:44.862Z,30.89
2018-12-26T11:02:44.834Z,31.00
2018-12-26T11:03:44.739Z,31.07
2018-12-26T11:04:44.768Z,30.89
2018-12-26T11:05:44.781Z,30.56
2018-12-26T11:06:44.860Z,30.14
2018-12-26T11:07:44.935Z,29.65
2018-12-26T11:08:44.847Z,29.28
2018-12-26T11:09:45.030Z,28.75
2018-12-26T11:10:44.861Z,28.06
2018-12-26T11:11:44.889Z,27.76
2018-12-26T11:12:44.905Z,27.57
2018-12-26T11:13:44.944Z,27.34
2018-12-26T11:14:45.001Z,27.28
2018-12-26T11:15:44.969Z,27.25
2018-12-26T11:16:45.013Z,27.19
2018-12-26T11:17:45.023Z,27.05
2018-12-26T11:18:45.024Z,26.93
2018-12-26T11:19:45.214Z,26.93
2018-12-26T11:20:45.085Z,26.92
2018-12-26T11:21:45.212Z,26.93
2018-12-26T11:22:45.110Z,27.03
2018-12-26T11:23:45.134Z,27.03
2018-12-26T11:24:45.263Z,26.91
2018-12-26T11:25:45.291Z,27.01
2018-12-26T11:26:45.206Z,27.05
2018-12-26T11:27:45.202Z,27.15
2018-12-26T11:28:45.284Z,27.29
2018-12-26T11:29:45.297Z,27.19
2018-12-26T11:30:45.277Z,27.19
2018-12-26T11:31:45.284Z,27.52
2018-12-26T11:32:45.293Z,27.78
2018-12-26T11:33:45.329Z,27.98
2018-12-26T11:34:45.563Z,28.49
2018-12-26T11:35:45.483Z,29.24
2018-12-26T11:36:45.483Z,30.02
2018-12-26T11:37:45.396Z,30.51
2018-12-26T11:38:45.422Z,31.08
2018-12-26T11:39:45.612Z,31.81
2018-12-26T11:40:45.475Z,32.34
2018-12-26T11:41:45.489Z,32.63
2018-12-26T11:42:45.553Z,32.82
2018-12-26T11:43:45.526Z,33.01
2018-12-26T11:44:45.713Z,32.97
2018-12-26T11:45:45.555Z,33.29
2018-12-26T11:46:45.586Z,33.73
2018-12-26T11:47:45.601Z,33.91
2018-12-26T11:48:45.618Z,34.09
2018-12-26T11:49:45.702Z,34.55
2018-12-26T11:50:45.667Z,35.10
2018-12-26T11:51:45.701Z,35.30
2018-12-26T11:52:45.735Z,35.57
2018-12-26T11:53:45.747Z,35.74
2018-12-26T11:54:45.811Z,35.42
2018-12-26T11:55:45.787Z,35.19
2018-12-26T11:56:45.829Z,35.13
2018-12-26T11:57:45.831Z,34.91
2018-12-26T11:58:45.855Z,34.93
2018-12-26T11:59:45.984Z,35.13
2018-12-26T12:00:46.030Z,35.07
2018-12-26T12:01:45.927Z,35.01
2018-12-26T12:02:45.951Z,34.89
2018-12-26T12:03:46.001Z,34.59
2018-12-26T12:04:46.174Z,34.14
2018-12-26T12:05:46.035Z,34.69
2018-12-26T12:06:46.050Z,34.63
2018-12-26T12:07:46.084Z,34.62
2018-12-26T12:08:46.102Z,34.73
2018-12-26T12:09:46.224Z,35.25
2018-12-26T12:10:46.150Z,35.49
2018-12-26T12:11:46.289Z,35.88
2018-12-26T12:12:46.225Z,36.13
2018-12-26T12:13:46.207Z,36.51
2018-12-26T12:14:46.333Z,36.99
2018-12-26T12:15:46.271Z,37.76
2018-12-26T12:16:46.305Z,38.13
2018-12-26T12:17:46.321Z,37.82
2018-12-26T12:18:46.347Z,37.33
2018-12-26T12:19:46.504Z,36.76
2018-12-26T12:20:46.405Z,36.39
2018-12-26T12:21:46.411Z,36.01
2018-12-26T12:22:46.442Z,35.79
2018-12-26T12:23:46.455Z,35.54
2018-12-26T12:24:46.604Z,35.37
2018-12-26T12:25:46.639Z,35.19
2018-12-26T12:26:46.668Z,35.39
2018-12-26T12:27:46.577Z,35.42
2018-12-26T12:28:46.595Z,35.42
2018-12-26T12:29:46.776Z,35.13
2018-12-26T12:30:46.636Z,35.01
2018-12-26T12:31:46.667Z,35.08
2018-12-26T12:32:46.692Z,35.10
2018-12-26T12:33:46.719Z,35.23
2018-12-26T12:34:46.944Z,35.34
2018-12-26T12:35:46.767Z,35.82
2018-12-26T12:36:46.777Z,36.57
2018-12-26T12:37:46.817Z,37.44
2018-12-26T12:38:46.961Z,37.92
2018-12-26T12:39:47.008Z,38.34
2018-12-26T12:40:46.919Z,38.72
2018-12-26T12:41:46.914Z,38.76
2018-12-26T12:42:46.965Z,38.76
2018-12-26T12:43:46.966Z,38.88
2018-12-26T12:44:47.265Z,39.01
2018-12-26T12:45:47.142Z,39.30
2018-12-26T12:46:47.048Z,39.51
2018-12-26T12:47:47.086Z,39.97
2018-12-26T12:48:47.241Z,40.70
2018-12-26T12:49:47.227Z,40.39
2018-12-26T12:50:47.143Z,40.49
2018-12-26T12:51:47.198Z,40.52
2018-12-26T12:52:47.253Z,40.73